createdAt,value
2023-03-15T00:00:33.505Z,3.22
2023-03-15T00:03:31.610Z,3.83
2023-03-15T00:06:29.467Z,4.40
2023-03-15T00:09:27.862Z,2.22
2023-03-15T00:12:25.842Z,1.67
2023-03-15T00:15:23.866Z,4.13
2023-03-15T00:18:21.884Z,3.30
2023-03-15T00:21:20.152Z,4.97
2023-03-15T00:24:18.086Z,6.18
2023-03-15T00:27:15.993Z,3.75
2023-03-15T00:30:14.020Z,3.67
2023-03-15T00:33:14.458Z,2.20
2023-03-15T00:36:13.506Z,3.90
2023-03-15T00:39:11.669Z,4.60
2023-03-15T00:42:09.361Z,4.05
2023-03-15T00:45:08.505Z,2.72
2023-03-15T00:48:06.575Z,3.85
2023-03-15T00:51:12.760Z,4.38
2023-03-15T00:54:14.314Z,2.78
2023-03-15T00:57:12.113Z,1.90
2023-03-15T01:00:14.451Z,2.05
2023-03-15T01:03:12.412Z,5.80
2023-03-15T01:06:13.508Z,3.20
2023-03-15T01:09:11.431Z,4.40
2023-03-15T01:12:09.591Z,3.75
2023-03-15T01:15:09.588Z,11.70
2023-03-15T01:18:07.398Z,4.88
2023-03-15T01:21:08.217Z,5.10
2023-03-15T01:24:06.208Z,6.72
2023-03-15T01:27:04.161Z,4.10
2023-03-15T01:30:01.989Z,2.17
2023-03-15T01:33:00.059Z,4.07
2023-03-15T01:36:01.340Z,3.35
2023-03-15T01:38:59.237Z,3.38
2023-03-15T01:41:56.947Z,4.80
2023-03-15T01:44:57.728Z,7.80
2023-03-15T01:47:55.425Z,6.82
2023-03-15T01:50:55.634Z,3.10
2023-03-15T01:54:07.866Z,3.58
2023-03-15T01:57:11.591Z,7.88
2023-03-15T02:00:12.651Z,5.15
2023-03-15T02:03:18.444Z,3.88
2023-03-15T02:06:19.922Z,8.05
2023-03-15T02:09:20.243Z,8.38
2023-03-15T02:12:19.195Z,12.20
2023-03-15T02:15:17.391Z,9.45
2023-03-15T02:18:16.486Z,7.10
2023-03-15T02:21:36.814Z,6.70
2023-03-15T02:24:51.842Z,8.32
2023-03-15T02:27:49.687Z,7.13
2023-03-15T02:30:48.711Z,7.07
2023-03-15T02:33:50.206Z,5.78
2023-03-15T02:36:47.940Z,7.63
2023-03-15T02:39:45.745Z,5.90
2023-03-15T02:42:43.722Z,5.38
2023-03-15T02:45:42.399Z,4.15
2023-03-15T02:48:41.849Z,5.20
2023-03-15T02:51:39.674Z,6.90
2023-03-15T02:54:37.577Z,7.32
2023-03-15T02:57:35.906Z,5.80
2023-03-15T03:00:33.770Z,6.20
2023-03-15T03:03:31.601Z,7.15
2023-03-15T03:06:29.373Z,5.55
2023-03-15T03:09:28.411Z,8.02
2023-03-15T03:12:26.228Z,12.27
2023-03-15T03:15:25.117Z,7.85
2023-03-15T03:18:22.822Z,8.63
2023-03-15T03:21:20.960Z,7.20
2023-03-15T03:24:18.666Z,8.98
2023-03-15T03:27:17.858Z,3.25
2023-03-15T03:30:16.041Z,5.13
2023-03-15T03:33:13.895Z,4.15
2023-03-15T03:36:13.632Z,3.72
2023-03-15T03:39:11.724Z,4.43
2023-03-15T03:42:09.739Z,4.53
2023-03-15T03:45:08.632Z,6.55
2023-03-15T03:48:06.556Z,6.65
2023-03-15T03:51:04.674Z,6.55
2023-03-15T03:54:02.910Z,12.55
2023-03-15T03:57:00.884Z,8.43
2023-03-15T04:00:01.765Z,9.85
2023-03-15T04:02:59.682Z,8.52
2023-03-15T04:05:58.681Z,9.45
2023-03-15T04:08:56.668Z,6.68
2023-03-15T04:11:54.500Z,6.90
2023-03-15T04:14:52.317Z,10.63
2023-03-15T04:17:56.204Z,10.43
2023-03-15T04:20:55.238Z,9.23
2023-03-15T04:23:52.968Z,11.45
2023-03-15T04:26:50.849Z,10.27
2023-03-15T04:29:48.647Z,11.65
2023-03-15T04:32:46.475Z,10.70
2023-03-15T04:35:44.264Z,13.23
2023-03-15T04:38:42.103Z,8.35
2023-03-15T04:41:40.025Z,8.02
2023-03-15T04:44:37.891Z,8.60
2023-03-15T04:47:35.612Z,9.55
2023-03-15T04:50:33.624Z,8.80
2023-03-15T04:53:31.338Z,8.40
2023-03-15T04:56:30.058Z,9.75
2023-03-15T04:59:27.984Z,14.00
2023-03-15T05:02:26.000Z,10.13
2023-03-15T05:05:24.479Z,16.85
2023-03-15T05:08:22.335Z,17.02
2023-03-15T05:11:20.229Z,19.13
2023-03-15T05:14:18.182Z,18.13
2023-03-15T05:17:16.020Z,19.17
2023-03-15T05:20:15.585Z,28.23
2023-03-15T05:23:14.179Z,25.40
2023-03-15T05:26:12.067Z,23.05
2023-03-15T05:29:09.780Z,25.05
2023-03-15T05:32:07.905Z,29.70
2023-03-15T05:35:07.876Z,27.17
2023-03-15T05:38:06.802Z,25.40
2023-03-15T05:41:04.563Z,25.33
2023-03-15T05:44:02.478Z,25.67
2023-03-15T05:47:00.263Z,26.88
2023-03-15T05:49:58.240Z,27.48
2023-03-15T05:52:56.597Z,29.20
2023-03-15T05:55:54.685Z,25.80
2023-03-15T05:58:52.449Z,15.25
2023-03-15T06:01:50.257Z,13.88
2023-03-15T06:04:48.057Z,26.90
2023-03-15T06:07:46.970Z,21.88
2023-03-15T06:10:44.802Z,20.15
2023-03-15T06:13:42.626Z,23.73
2023-03-15T06:16:40.420Z,24.98
2023-03-15T06:19:38.316Z,17.67
2023-03-15T06:22:36.035Z,19.13
2023-03-15T06:25:33.892Z,18.98
2023-03-15T06:28:31.615Z,19.35
2023-03-15T06:31:29.527Z,22.10
2023-03-15T06:34:27.430Z,19.40
2023-03-15T06:37:34.710Z,17.85
2023-03-15T06:40:32.973Z,21.92
2023-03-15T06:43:31.152Z,17.67
2023-03-15T06:46:29.384Z,15.23
2023-03-15T06:49:27.229Z,17.95
2023-03-15T06:52:25.046Z,14.85
2023-03-15T06:55:22.883Z,15.23
2023-03-15T06:58:20.684Z,16.80
2023-03-15T07:01:18.678Z,20.05
2023-03-15T07:04:16.650Z,14.65
2023-03-15T07:07:15.482Z,16.02
2023-03-15T07:10:13.302Z,15.80
2023-03-15T07:13:11.144Z,22.13
2023-03-15T07:16:08.956Z,20.23
2023-03-15T07:19:06.815Z,23.80
2023-03-15T07:22:04.894Z,20.15
2023-03-15T07:25:02.942Z,16.30
2023-03-15T07:28:00.762Z,15.40
2023-03-15T07:31:02.246Z,13.80
2023-03-15T07:33:59.987Z,16.52
2023-03-15T07:37:00.852Z,12.98
2023-03-15T07:40:01.010Z,11.38
2023-03-15T07:42:58.870Z,15.23
2023-03-15T07:45:59.439Z,14.77
2023-03-15T07:48:57.464Z,14.18
2023-03-15T07:51:55.197Z,19.50
2023-03-15T07:54:53.954Z,13.52
2023-03-15T07:57:53.371Z,13.90
2023-03-15T08:00:51.389Z,14.30
2023-03-15T08:03:49.115Z,14.80
2023-03-15T08:06:47.008Z,14.13
2023-03-15T08:09:44.832Z,15.75
2023-03-15T08:12:43.681Z,14.23
2023-03-15T08:15:42.106Z,16.73
2023-03-15T08:18:39.935Z,18.05
2023-03-15T08:21:37.972Z,20.40
2023-03-15T08:24:36.076Z,18.48
2023-03-15T08:27:33.807Z,17.92
2023-03-15T08:30:31.633Z,14.52
2023-03-15T08:33:30.714Z,17.60
2023-03-15T08:36:28.615Z,16.35
2023-03-15T08:39:26.511Z,16.45
2023-03-15T08:42:24.531Z,20.92
2023-03-15T08:45:24.466Z,18.63
2023-03-15T08:48:22.297Z,17.35
2023-03-15T08:51:22.266Z,13.57
2023-03-15T08:54:20.135Z,18.60
2023-03-15T08:57:17.899Z,17.85
2023-03-15T09:00:21.520Z,16.73
2023-03-15T09:03:20.693Z,15.82
2023-03-15T09:06:18.506Z,16.98
2023-03-15T09:09:17.940Z,19.05
2023-03-15T09:12:17.408Z,22.50
2023-03-15T09:15:15.337Z,19.35
2023-03-15T09:18:13.451Z,21.58
2023-03-15T09:21:11.574Z,19.40
2023-03-15T09:24:09.415Z,17.55
2023-03-15T09:27:07.264Z,17.50
2023-03-15T09:30:05.734Z,21.42
2023-03-15T09:33:03.972Z,17.88
2023-03-15T09:36:03.019Z,22.42
2023-03-15T09:39:02.166Z,21.35
2023-03-15T09:42:02.613Z,22.85
2023-03-15T09:45:23.370Z,26.40
2023-03-15T09:48:38.460Z,28.73
2023-03-15T09:51:55.711Z,24.83
2023-03-15T09:55:05.329Z,26.10
2023-03-15T09:58:11.630Z,26.85
2023-03-15T10:01:14.930Z,14.35
2023-03-15T10:04:31.412Z,14.80
2023-03-15T10:07:29.431Z,12.57
2023-03-15T10:10:35.541Z,12.65
2023-03-15T10:13:56.553Z,13.45
2023-03-15T10:16:54.386Z,17.20
2023-03-15T10:19:59.681Z,16.05
2023-03-15T10:23:04.259Z,15.48
2023-03-15T10:26:02.925Z,14.40
2023-03-15T10:29:03.002Z,16.67
2023-03-15T10:32:01.563Z,16.73
2023-03-15T10:34:59.562Z,19.98
2023-03-15T10:37:57.616Z,16.85
2023-03-15T10:41:00.022Z,20.98
2023-03-15T10:44:02.801Z,19.88
2023-03-15T10:47:21.388Z,24.50
2023-03-15T10:50:29.326Z,18.33
2023-03-15T10:53:27.439Z,20.00
2023-03-15T10:56:32.120Z,19.85
2023-03-15T10:59:33.282Z,24.02
2023-03-15T11:02:32.299Z,30.63
2023-03-15T11:05:39.238Z,36.75
2023-03-15T11:08:41.308Z,38.78
2023-03-15T11:12:01.412Z,42.20
2023-03-15T11:15:03.813Z,38.95
2023-03-15T11:18:01.620Z,36.92
2023-03-15T11:21:00.610Z,29.48
2023-03-15T11:24:01.515Z,21.40
2023-03-15T11:27:02.566Z,16.80
2023-03-15T11:30:02.743Z,21.50
2023-03-15T11:33:07.767Z,15.65
2023-03-15T11:36:12.126Z,17.50
2023-03-15T11:39:16.710Z,19.98
2023-03-15T11:42:20.927Z,19.55
2023-03-15T11:45:27.859Z,18.13
2023-03-15T11:48:41.305Z,18.38
2023-03-15T11:51:39.788Z,23.42
2023-03-15T11:54:37.732Z,17.05
2023-03-15T11:57:41.174Z,21.67
2023-03-15T12:00:55.603Z,20.20
2023-03-15T12:04:28.777Z,20.23
2023-03-15T12:07:36.164Z,19.77
2023-03-15T12:10:44.557Z,21.60
2023-03-15T12:14:07.358Z,21.70
2023-03-15T12:17:40.976Z,25.65
2023-03-15T12:20:43.314Z,25.73
2023-03-15T12:23:59.704Z,23.58
2023-03-15T12:27:14.457Z,22.15
2023-03-15T12:30:23.178Z,23.48
2023-03-15T12:33:23.039Z,18.33
2023-03-15T12:36:36.474Z,19.48
2023-03-15T12:39:44.253Z,15.13
2023-03-15T12:43:02.796Z,16.40
2023-03-15T12:46:00.590Z,14.48
2023-03-15T12:49:35.214Z,17.50
2023-03-15T12:52:42.493Z,16.92
2023-03-15T12:55:41.405Z,19.17
2023-03-15T12:58:41.726Z,15.40
2023-03-15T13:01:43.327Z,15.05
2023-03-15T13:04:42.508Z,14.75
2023-03-15T13:08:04.898Z,11.15
2023-03-15T13:14:38.885Z,12.30
2023-03-15T13:17:50.837Z,9.98
2023-03-15T13:21:09.470Z,11.47
2023-03-15T13:24:18.276Z,14.43
2023-03-15T13:27:37.087Z,11.27
2023-03-15T13:30:39.769Z,11.63
2023-03-15T13:33:37.729Z,15.00
2023-03-15T13:36:47.554Z,14.85
2023-03-15T13:39:57.082Z,18.45
2023-03-15T13:43:00.365Z,15.00
2023-03-15T13:45:59.790Z,17.23
2023-03-15T13:48:57.645Z,14.48
2023-03-15T13:51:55.509Z,16.20
2023-03-15T13:54:54.816Z,18.60
2023-03-15T13:57:58.152Z,16.02
2023-03-15T14:01:01.125Z,17.23
2023-03-15T14:04:06.448Z,18.67
2023-03-15T14:07:20.464Z,15.05
2023-03-15T14:10:36.731Z,18.20
2023-03-15T14:13:46.746Z,17.85
2023-03-15T14:17:03.051Z,13.80
2023-03-15T14:20:16.527Z,16.23
2023-03-15T14:23:17.711Z,15.18
2023-03-15T14:26:22.068Z,16.38
2023-03-15T14:29:28.965Z,14.65
2023-03-15T14:32:31.364Z,19.75
2023-03-15T14:35:44.258Z,20.67
2023-03-15T14:41:39.761Z,21.75
2023-03-15T14:44:40.673Z,15.48
2023-03-15T14:47:55.412Z,18.05
2023-03-15T14:50:55.800Z,19.23
2023-03-15T14:53:56.865Z,20.90
2023-03-15T14:56:54.683Z,21.92
2023-03-15T14:59:53.392Z,21.05
2023-03-15T15:02:54.848Z,29.60
2023-03-15T15:05:52.978Z,26.77
2023-03-15T15:08:55.918Z,28.35
2023-03-15T15:11:54.451Z,19.27
2023-03-15T15:14:52.185Z,19.92
2023-03-15T15:17:50.607Z,18.65
2023-03-15T15:20:48.649Z,16.50
2023-03-15T15:23:59.199Z,18.13
2023-03-15T15:26:57.148Z,15.98
2023-03-15T15:29:54.989Z,19.73
2023-03-15T15:32:53.250Z,17.88
2023-03-15T15:35:54.689Z,19.10
2023-03-15T15:38:52.795Z,17.05
2023-03-15T15:41:51.452Z,17.63
2023-03-15T15:44:49.177Z,18.27
2023-03-15T15:47:47.176Z,21.45
2023-03-15T15:50:44.935Z,22.35
2023-03-15T15:53:42.828Z,20.77
2023-03-15T15:56:48.034Z,20.70
2023-03-15T15:59:45.874Z,18.35
2023-03-15T16:02:43.724Z,19.02
2023-03-15T16:05:42.188Z,17.88
2023-03-15T16:08:41.528Z,18.83
2023-03-15T16:11:40.185Z,18.33
2023-03-15T16:14:37.911Z,17.35
2023-03-15T16:17:35.737Z,16.23
2023-03-15T16:20:33.442Z,20.02
2023-03-15T16:23:31.318Z,16.58
2023-03-15T16:26:29.160Z,16.33
2023-03-15T16:29:37.679Z,19.27
2023-03-15T16:32:43.859Z,16.77
2023-03-15T16:35:42.699Z,18.10
2023-03-15T16:38:40.498Z,21.27
2023-03-15T16:41:38.388Z,16.80
2023-03-15T16:44:36.215Z,17.20
2023-03-15T16:47:34.058Z,17.48
2023-03-15T16:50:33.206Z,18.33
2023-03-15T16:53:32.193Z,21.08
2023-03-15T16:56:33.723Z,19.02
2023-03-15T16:59:32.787Z,21.85
2023-03-15T17:02:31.154Z,21.05
2023-03-15T17:05:29.070Z,20.17
2023-03-15T17:08:26.988Z,20.23
2023-03-15T17:11:25.867Z,14.75
2023-03-15T17:14:31.487Z,18.50
2023-03-15T17:17:31.455Z,14.82
2023-03-15T17:20:31.387Z,18.05
2023-03-15T17:23:29.259Z,16.60
2023-03-15T17:26:30.779Z,19.88
2023-03-15T17:29:31.326Z,17.05
2023-03-15T17:32:29.693Z,22.98
2023-03-15T17:35:35.463Z,19.85
2023-03-15T17:38:33.519Z,24.48
2023-03-15T17:41:34.441Z,21.23
2023-03-15T17:44:32.143Z,22.90
2023-03-15T17:47:29.955Z,24.38
2023-03-15T17:50:32.108Z,21.77
2023-03-15T17:53:30.023Z,19.35
2023-03-15T17:56:29.217Z,21.33
2023-03-15T17:59:27.118Z,19.10
2023-03-15T18:02:25.331Z,21.58
2023-03-15T18:05:26.039Z,17.52
2023-03-15T18:08:25.328Z,19.90
2023-03-15T18:11:28.138Z,17.13
2023-03-15T18:14:26.007Z,18.02
2023-03-15T18:17:23.890Z,18.25
2023-03-15T18:20:24.360Z,20.63
2023-03-15T18:23:22.450Z,19.35
2023-03-15T18:26:23.496Z,20.40
2023-03-15T18:29:23.591Z,20.30
2023-03-15T18:32:21.371Z,17.17
2023-03-15T18:35:23.866Z,21.60
2023-03-15T18:38:21.735Z,23.75
2023-03-15T18:41:22.850Z,21.35
2023-03-15T18:44:20.703Z,24.90
2023-03-15T18:47:18.522Z,21.38
2023-03-15T18:50:17.143Z,21.65
2023-03-15T18:53:15.719Z,22.58
2023-03-15T18:56:34.722Z,19.75
2023-03-15T18:59:32.595Z,19.08
2023-03-15T19:02:30.388Z,19.35
2023-03-15T19:05:30.849Z,19.33
2023-03-15T19:08:28.706Z,18.52
2023-03-15T19:11:27.593Z,21.52
2023-03-15T19:14:25.370Z,20.30
2023-03-15T19:17:23.250Z,21.80
2023-03-15T19:20:22.516Z,18.35
2023-03-15T19:23:21.676Z,24.60
2023-03-15T19:26:19.506Z,22.08
2023-03-15T19:29:18.429Z,20.55
2023-03-15T19:32:16.249Z,19.75
2023-03-15T19:35:14.282Z,23.15
2023-03-15T19:38:12.009Z,19.65
2023-03-15T19:41:12.664Z,20.73
2023-03-15T19:44:12.425Z,24.02
2023-03-15T19:47:11.132Z,19.92
2023-03-15T19:50:11.431Z,18.52
2023-03-15T19:53:10.417Z,18.08
2023-03-15T19:56:09.151Z,24.58
2023-03-15T19:59:07.062Z,21.05
2023-03-15T20:02:04.786Z,22.13
2023-03-15T20:05:04.589Z,23.45
2023-03-15T20:08:02.655Z,22.60
2023-03-15T20:11:01.837Z,21.80
2023-03-15T20:13:59.540Z,25.45
2023-03-15T20:16:57.439Z,21.02
2023-03-15T20:19:55.964Z,21.10
2023-03-15T20:22:56.251Z,22.08
2023-03-15T20:26:05.032Z,18.73
2023-03-15T20:29:03.986Z,21.73
2023-03-15T20:32:01.728Z,21.42
2023-03-15T20:35:00.859Z,25.00
2023-03-15T20:38:04.769Z,21.45
2023-03-15T20:41:02.625Z,21.88
2023-03-15T20:44:00.802Z,22.83
2023-03-15T20:47:00.018Z,21.38
2023-03-15T20:49:57.951Z,24.92
2023-03-15T20:52:57.749Z,25.08
2023-03-15T20:55:55.488Z,26.35
2023-03-15T20:58:53.484Z,23.30
2023-03-15T21:01:51.927Z,26.83
2023-03-15T21:04:49.928Z,21.00
2023-03-15T21:07:47.850Z,24.00
2023-03-15T21:10:45.717Z,20.67
2023-03-15T21:13:43.468Z,25.25
2023-03-15T21:16:41.758Z,24.67
2023-03-15T21:19:39.578Z,24.02
2023-03-15T21:22:37.917Z,23.80
2023-03-15T21:25:36.068Z,22.55
2023-03-15T21:28:37.167Z,24.38
2023-03-15T21:31:37.003Z,20.67
2023-03-15T21:34:35.008Z,22.27
2023-03-15T21:37:33.865Z,22.67
2023-03-15T21:40:31.790Z,21.95
2023-03-15T21:43:31.790Z,18.73
2023-03-15T21:46:29.715Z,19.85
2023-03-15T21:49:27.585Z,19.27
2023-03-15T21:52:26.803Z,19.60
2023-03-15T21:55:24.598Z,21.08
2023-03-15T21:58:22.464Z,19.67
2023-03-15T22:01:20.976Z,26.20
2023-03-15T22:04:18.876Z,30.05
2023-03-15T22:07:16.720Z,38.53
2023-03-15T22:10:16.222Z,42.50
2023-03-15T22:13:14.158Z,36.15
2023-03-15T22:16:13.989Z,45.70
2023-03-15T22:19:12.256Z,39.95
2023-03-15T22:22:10.636Z,42.85
2023-03-15T22:25:08.611Z,46.13
2023-03-15T22:28:07.009Z,45.13
2023-03-15T22:31:04.876Z,48.85
2023-03-15T22:34:04.768Z,55.80
2023-03-15T22:37:02.786Z,66.22
2023-03-15T22:40:01.171Z,72.60
2023-03-15T22:42:58.985Z,61.05
2023-03-15T22:45:56.879Z,59.75
2023-03-15T22:48:55.116Z,60.50
2023-03-15T22:51:53.014Z,61.85
2023-03-15T22:54:50.714Z,57.63
2023-03-15T22:57:49.542Z,60.45
2023-03-15T23:00:47.332Z,63.60
2023-03-15T23:03:45.153Z,64.75
2023-03-15T23:06:42.839Z,56.55
2023-03-15T23:09:40.871Z,64.00
2023-03-15T23:12:38.605Z,59.20
2023-03-15T23:15:36.652Z,51.20
2023-03-15T23:18:34.660Z,24.65
2023-03-15T23:21:32.570Z,25.00
2023-03-15T23:24:30.387Z,22.67
2023-03-15T23:27:28.612Z,24.45
2023-03-15T23:30:26.565Z,23.17
2023-03-15T23:33:26.063Z,22.55
2023-03-15T23:36:23.773Z,26.60
2023-03-15T23:39:22.726Z,31.40
2023-03-15T23:42:20.576Z,26.25
2023-03-15T23:45:18.472Z,26.98
2023-03-15T23:48:16.218Z,29.20
2023-03-15T23:51:14.153Z,17.55
2023-03-15T23:54:12.080Z,18.95
2023-03-15T23:57:11.858Z,14.43
